Star Alliance - MKJS Airport Info

    MKJS (Sangster International Airport)  Login to use Map Selector

  ALLIANCE AIRCRAFT AT THIS AIRPORT
Tail Number Aircraft ModelFlightsRunwayRangeCapacityPaxSale
HIRE1Beechcraft King Air 350 03300ft1583nm2604Kg14No
  RUNWAY INFORMATION    |    Airport Elevation : 4ft    |    LAT : 18.5037002563477  /  LON : -77.9133987426758
Runway Number 07 / 25 Runway Width 150' Runway Length 8735'
Lighted Runway Yes Runway StatusOpen Runway Surface Asphalt
  CLOSE ALTERNATE AIRPORTS
ICAODistanceAirport NameLongest RWRW SurfaceMAP
MKBS54NMBoscobel Aerodrome3002FTAsphalt
MKTP69NMTinson Pen Airport4300FTAsphalt
MKJP73NMNorman Manley International Airport8910FTAsphalt
MKKJ81NMKen Jones Airport3423FTAsphalt
  AIRPORT WEATHER
86°F | 30°C
Temperature
70%
Humidity
29.94" | 0mb
Pressure
6sm
Visibility
VFR
Flight Rules
FEW @ 2400ft
Initial Clouds
FAIR
Conditions
Wind Info
11/27/22 17:00Z
Updated

MKJS 271700Z 05013KT 9999 FEW024 30/24 Q1014
  AIRPORT FREQUENCIES
NameFrequency
ATIS127.900
GROUND121.700
TOWER118.700
APPROACH120.800
DEPARTURE120.800
ISIA (RWY 7)109.500
  PILOT ENTERED AIRPORT INFORMATION SEE ALL PILOT ENTERED AIRPORT INFO

Powered by Virtual Airlines Manager